sensor_id;sensor_type;location;lat;lon;timestamp;P1;durP1;ratioP1;P2;durP2;ratioP2
35048;SDS011;21236;48.740;-3.446;2023-02-28T00:00:01;8.32;;;2.20;;
35048;SDS011;21236;48.740;-3.446;2023-02-28T00:02:35;9.95;;;2.30;;
35048;SDS011;21236;48.740;-3.446;2023-02-28T00:05:01;12.40;;;1.85;;
35048;SDS011;21236;48.740;-3.446;2023-02-28T00:07:28;9.15;;;2.30;;
35048;SDS011;21236;48.740;-3.446;2023-02-28T00:09:54;8.43;;;2.00;;
35048;SDS011;21236;48.740;-3.446;2023-02-28T00:12:21;14.02;;;1.90;;
35048;SDS011;21236;48.740;-3.446;2023-02-28T00:14:47;6.93;;;2.10;;
35048;SDS011;21236;48.740;-3.446;2023-02-28T00:17:13;8.70;;;1.63;;
35048;SDS011;21236;48.740;-3.446;2023-02-28T00:19:39;13.07;;;2.13;;
35048;SDS011;21236;48.740;-3.446;2023-02-28T00:22:05;11.38;;;2.17;;
35048;SDS011;21236;48.740;-3.446;2023-02-28T00:24:31;9.73;;;1.90;;
35048;SDS011;21236;48.740;-3.446;2023-02-28T00:26:57;12.20;;;2.33;;
35048;SDS011;21236;48.740;-3.446;2023-02-28T00:29:23;8.80;;;2.30;;
35048;SDS011;21236;48.740;-3.446;2023-02-28T00:31:50;11.35;;;2.55;;
35048;SDS011;21236;48.740;-3.446;2023-02-28T00:34:16;9.10;;;1.83;;
35048;SDS011;21236;48.740;-3.446;2023-02-28T00:36:42;6.03;;;2.70;;
35048;SDS011;21236;48.740;-3.446;2023-02-28T00:39:10;5.68;;;1.60;;
35048;SDS011;21236;48.740;-3.446;2023-02-28T00:41:36;9.18;;;2.85;;
35048;SDS011;21236;48.740;-3.446;2023-02-28T00:44:03;14.57;;;2.72;;
35048;SDS011;21236;48.740;-3.446;2023-02-28T00:46:31;7.90;;;1.70;;
35048;SDS011;21236;48.740;-3.446;2023-02-28T00:48:57;5.18;;;1.45;;
35048;SDS011;21236;48.740;-3.446;2023-02-28T00:51:23;8.70;;;2.03;;
35048;SDS011;21236;48.740;-3.446;2023-02-28T00:53:49;9.95;;;1.90;;
35048;SDS011;21236;48.740;-3.446;2023-02-28T00:56:15;12.38;;;1.77;;
35048;SDS011;21236;48.740;-3.446;2023-02-28T00:58:41;13.77;;;1.83;;
35048;SDS011;21236;48.740;-3.446;2023-02-28T01:01:08;10.05;;;1.90;;
35048;SDS011;21236;48.740;-3.446;2023-02-28T01:03:34;7.95;;;1.70;;
35048;SDS011;21236;48.740;-3.446;2023-02-28T01:06:00;5.43;;;1.90;;
35048;SDS011;21236;48.740;-3.446;2023-02-28T01:08:26;6.22;;;1.55;;
35048;SDS011;21236;48.740;-3.446;2023-02-28T01:10:52;5.07;;;1.45;;
35048;SDS011;21236;48.740;-3.446;2023-02-28T01:13:19;11.77;;;1.48;;
35048;SDS011;21236;48.740;-3.446;2023-02-28T01:15:49;11.15;;;1.80;;
35048;SDS011;21236;48.740;-3.446;2023-02-28T01:18:16;11.40;;;2.08;;
35048;SDS011;21236;48.740;-3.446;2023-02-28T01:20:42;11.48;;;1.63;;
35048;SDS011;21236;48.740;-3.446;2023-02-28T01:23:08;16.27;;;2.97;;
35048;SDS011;21236;48.740;-3.446;2023-02-28T01:25:35;9.40;;;2.30;;
35048;SDS011;21236;48.740;-3.446;2023-02-28T01:28:03;8.10;;;1.95;;
35048;SDS011;21236;48.740;-3.446;2023-02-28T01:30:30;9.13;;;1.58;;
35048;SDS011;21236;48.740;-3.446;2023-02-28T01:32:56;11.35;;;1.77;;
35048;SDS011;21236;48.740;-3.446;2023-02-28T01:35:24;10.93;;;2.10;;
35048;SDS011;21236;48.740;-3.446;2023-02-28T01:37:50;14.10;;;1.90;;
35048;SDS011;21236;48.740;-3.446;2023-02-28T01:40:17;11.52;;;1.65;;
35048;SDS011;21236;48.740;-3.446;2023-02-28T01:42:43;6.28;;;1.75;;
35048;SDS011;21236;48.740;-3.446;2023-02-28T01:45:31;8.35;;;2.28;;
35048;SDS011;21236;48.740;-3.446;2023-02-28T01:48:03;10.00;;;2.10;;
35048;SDS011;21236;48.740;-3.446;2023-02-28T01:50:31;8.55;;;2.08;;
35048;SDS011;21236;48.740;-3.446;2023-02-28T01:53:00;7.63;;;2.05;;
35048;SDS011;21236;48.740;-3.446;2023-02-28T01:55:30;11.68;;;2.00;;
35048;SDS011;21236;48.740;-3.446;2023-02-28T01:57:58;12.88;;;2.42;;
35048;SDS011;21236;48.740;-3.446;2023-02-28T02:00:26;14.60;;;2.72;;
35048;SDS011;21236;48.740;-3.446;2023-02-28T02:02:56;15.98;;;2.10;;
35048;SDS011;21236;48.740;-3.446;2023-02-28T02:05:24;14.07;;;2.58;;
35048;SDS011;21236;48.740;-3.446;2023-02-28T02:07:57;13.27;;;2.58;;
35048;SDS011;21236;48.740;-3.446;2023-02-28T02:10:31;12.18;;;3.30;;
35048;SDS011;21236;48.740;-3.446;2023-02-28T02:18:18;6.57;;;2.38;;
35048;SDS011;21236;48.740;-3.446;2023-02-28T02:36:49;24.13;;;2.80;;
35048;SDS011;21236;48.740;-3.446;2023-02-28T02:42:02;7.60;;;2.45;;
35048;SDS011;21236;48.740;-3.446;2023-02-28T02:44:38;12.55;;;2.63;;
35048;SDS011;21236;48.740;-3.446;2023-02-28T02:47:13;11.45;;;2.90;;
35048;SDS011;21236;48.740;-3.446;2023-02-28T02:49:42;11.50;;;3.15;;
35048;SDS011;21236;48.740;-3.446;2023-02-28T02:52:09;11.85;;;3.20;;
35048;SDS011;21236;48.740;-3.446;2023-02-28T02:54:37;21.73;;;2.80;;
35048;SDS011;21236;48.740;-3.446;2023-02-28T02:57:05;15.40;;;3.13;;
35048;SDS011;21236;48.740;-3.446;2023-02-28T02:59:34;20.52;;;2.95;;
35048;SDS011;21236;48.740;-3.446;2023-02-28T03:02:01;8.70;;;2.15;;
35048;SDS011;21236;48.740;-3.446;2023-02-28T03:04:34;8.70;;;2.13;;
35048;SDS011;21236;48.740;-3.446;2023-02-28T03:07:01;14.25;;;2.17;;
35048;SDS011;21236;48.740;-3.446;2023-02-28T03:09:27;14.70;;;2.53;;
35048;SDS011;21236;48.740;-3.446;2023-02-28T03:11:54;10.63;;;2.95;;
35048;SDS011;21236;48.740;-3.446;2023-02-28T03:19:24;17.58;;;3.05;;
35048;SDS011;21236;48.740;-3.446;2023-02-28T03:26:54;11.35;;;3.55;;
35048;SDS011;21236;48.740;-3.446;2023-02-28T03:29:23;9.68;;;3.20;;
35048;SDS011;21236;48.740;-3.446;2023-02-28T03:32:03;15.98;;;3.63;;
35048;SDS011;21236;48.740;-3.446;2023-02-28T03:34:33;10.73;;;3.83;;
35048;SDS011;21236;48.740;-3.446;2023-02-28T03:37:02;7.88;;;3.42;;
35048;SDS011;21236;48.740;-3.446;2023-02-28T03:39:32;12.70;;;3.60;;
35048;SDS011;21236;48.740;-3.446;2023-02-28T03:42:15;13.60;;;4.03;;
35048;SDS011;21236;48.740;-3.446;2023-02-28T03:44:45;17.20;;;3.83;;
35048;SDS011;21236;48.740;-3.446;2023-02-28T03:47:36;10.20;;;4.25;;
35048;SDS011;21236;48.740;-3.446;2023-02-28T03:52:31;11.88;;;4.68;;
35048;SDS011;21236;48.740;-3.446;2023-02-28T03:54:59;19.70;;;5.35;;
35048;SDS011;21236;48.740;-3.446;2023-02-28T03:57:36;11.57;;;5.82;;
35048;SDS011;21236;48.740;-3.446;2023-02-28T04:00:08;10.35;;;5.38;;
35048;SDS011;21236;48.740;-3.446;2023-02-28T04:02:40;11.48;;;6.40;;
35048;SDS011;21236;48.740;-3.446;2023-02-28T04:05:06;11.13;;;6.10;;
35048;SDS011;21236;48.740;-3.446;2023-02-28T04:07:32;17.60;;;7.63;;
35048;SDS011;21236;48.740;-3.446;2023-02-28T04:09:59;10.98;;;6.60;;
35048;SDS011;21236;48.740;-3.446;2023-02-28T04:12:25;19.40;;;7.50;;
35048;SDS011;21236;48.740;-3.446;2023-02-28T04:14:51;19.25;;;7.72;;
35048;SDS011;21236;48.740;-3.446;2023-02-28T04:17:18;19.63;;;6.63;;
35048;SDS011;21236;48.740;-3.446;2023-02-28T04:19:44;9.10;;;6.18;;
35048;SDS011;21236;48.740;-3.446;2023-02-28T04:22:10;13.55;;;6.57;;
35048;SDS011;21236;48.740;-3.446;2023-02-28T04:24:36;16.17;;;6.70;;
35048;SDS011;21236;48.740;-3.446;2023-02-28T04:27:06;16.50;;;7.03;;
35048;SDS011;21236;48.740;-3.446;2023-02-28T04:29:32;15.40;;;6.68;;
35048;SDS011;21236;48.740;-3.446;2023-02-28T04:31:59;13.48;;;6.28;;
35048;SDS011;21236;48.740;-3.446;2023-02-28T04:34:26;14.85;;;7.45;;
35048;SDS011;21236;48.740;-3.446;2023-02-28T04:36:52;13.48;;;6.82;;
35048;SDS011;21236;48.740;-3.446;2023-02-28T04:39:20;11.60;;;7.18;;
35048;SDS011;21236;48.740;-3.446;2023-02-28T04:41:46;16.10;;;7.57;;
35048;SDS011;21236;48.740;-3.446;2023-02-28T04:44:13;20.95;;;8.18;;
35048;SDS011;21236;48.740;-3.446;2023-02-28T04:46:39;12.48;;;7.55;;
35048;SDS011;21236;48.740;-3.446;2023-02-28T04:49:05;17.52;;;7.78;;
35048;SDS011;21236;48.740;-3.446;2023-02-28T04:51:32;18.63;;;7.75;;
35048;SDS011;21236;48.740;-3.446;2023-02-28T04:53:58;16.52;;;7.78;;
35048;SDS011;21236;48.740;-3.446;2023-02-28T04:56:24;15.30;;;8.25;;
35048;SDS011;21236;48.740;-3.446;2023-02-28T04:58:50;14.52;;;8.43;;
35048;SDS011;21236;48.740;-3.446;2023-02-28T05:03:50;22.88;;;8.93;;
35048;SDS011;21236;48.740;-3.446;2023-02-28T05:06:17;15.82;;;8.55;;
35048;SDS011;21236;48.740;-3.446;2023-02-28T05:08:43;15.80;;;8.05;;
35048;SDS011;21236;48.740;-3.446;2023-02-28T05:11:23;15.35;;;9.00;;
35048;SDS011;21236;48.740;-3.446;2023-02-28T05:13:50;13.75;;;8.02;;
35048;SDS011;21236;48.740;-3.446;2023-02-28T05:16:17;15.90;;;8.23;;
35048;SDS011;21236;48.740;-3.446;2023-02-28T05:18:43;16.60;;;8.43;;
35048;SDS011;21236;48.740;-3.446;2023-02-28T05:24:00;18.08;;;9.02;;
35048;SDS011;21236;48.740;-3.446;2023-02-28T05:26:26;18.30;;;9.82;;
35048;SDS011;21236;48.740;-3.446;2023-02-28T05:28:53;20.45;;;9.70;;
35048;SDS011;21236;48.740;-3.446;2023-02-28T05:31:19;17.88;;;9.73;;
35048;SDS011;21236;48.740;-3.446;2023-02-28T05:33:45;17.85;;;10.52;;
35048;SDS011;21236;48.740;-3.446;2023-02-28T05:36:11;24.17;;;10.98;;
35048;SDS011;21236;48.740;-3.446;2023-02-28T05:38:37;22.33;;;10.95;;
35048;SDS011;21236;48.740;-3.446;2023-02-28T05:41:07;20.92;;;11.23;;
35048;SDS011;21236;48.740;-3.446;2023-02-28T05:43:34;19.15;;;11.77;;
35048;SDS011;21236;48.740;-3.446;2023-02-28T05:46:07;24.70;;;11.85;;
35048;SDS011;21236;48.740;-3.446;2023-02-28T05:48:34;21.98;;;11.85;;
35048;SDS011;21236;48.740;-3.446;2023-02-28T05:51:00;24.83;;;11.38;;
35048;SDS011;21236;48.740;-3.446;2023-02-28T05:53:27;22.80;;;12.02;;
35048;SDS011;21236;48.740;-3.446;2023-02-28T05:55:54;19.67;;;11.68;;
35048;SDS011;21236;48.740;-3.446;2023-02-28T05:58:20;23.98;;;12.30;;
35048;SDS011;21236;48.740;-3.446;2023-02-28T06:00:46;19.67;;;11.55;;
35048;SDS011;21236;48.740;-3.446;2023-02-28T06:03:13;20.73;;;12.23;;
35048;SDS011;21236;48.740;-3.446;2023-02-28T06:05:39;17.88;;;12.90;;
35048;SDS011;21236;48.740;-3.446;2023-02-28T06:08:05;23.90;;;11.88;;
35048;SDS011;21236;48.740;-3.446;2023-02-28T06:10:32;20.27;;;11.90;;
35048;SDS011;21236;48.740;-3.446;2023-02-28T06:13:05;19.33;;;11.65;;
35048;SDS011;21236;48.740;-3.446;2023-02-28T06:15:31;25.75;;;11.48;;
35048;SDS011;21236;48.740;-3.446;2023-02-28T06:17:58;20.58;;;12.00;;
35048;SDS011;21236;48.740;-3.446;2023-02-28T06:20:25;20.67;;;12.35;;
35048;SDS011;21236;48.740;-3.446;2023-02-28T06:22:54;19.52;;;12.48;;
35048;SDS011;21236;48.740;-3.446;2023-02-28T06:25:21;19.63;;;10.77;;
35048;SDS011;21236;48.740;-3.446;2023-02-28T06:27:47;28.55;;;13.73;;
35048;SDS011;21236;48.740;-3.446;2023-02-28T06:30:14;21.63;;;11.98;;
35048;SDS011;21236;48.740;-3.446;2023-02-28T06:32:40;27.40;;;11.80;;
35048;SDS011;21236;48.740;-3.446;2023-02-28T06:35:06;18.15;;;10.43;;
35048;SDS011;21236;48.740;-3.446;2023-02-28T06:37:32;22.25;;;11.20;;
35048;SDS011;21236;48.740;-3.446;2023-02-28T06:39:59;20.50;;;10.68;;
35048;SDS011;21236;48.740;-3.446;2023-02-28T06:42:25;17.88;;;10.68;;
35048;SDS011;21236;48.740;-3.446;2023-02-28T06:44:54;21.15;;;11.05;;
35048;SDS011;21236;48.740;-3.446;2023-02-28T06:47:20;21.58;;;10.68;;
35048;SDS011;21236;48.740;-3.446;2023-02-28T06:49:46;19.58;;;10.23;;
35048;SDS011;21236;48.740;-3.446;2023-02-28T06:52:13;22.48;;;11.45;;
35048;SDS011;21236;48.740;-3.446;2023-02-28T06:54:39;22.77;;;11.38;;
35048;SDS011;21236;48.740;-3.446;2023-02-28T06:57:06;25.95;;;11.23;;
35048;SDS011;21236;48.740;-3.446;2023-02-28T06:59:32;28.08;;;12.52;;
35048;SDS011;21236;48.740;-3.446;2023-02-28T07:01:58;27.75;;;10.65;;
35048;SDS011;21236;48.740;-3.446;2023-02-28T07:04:25;18.88;;;10.88;;
35048;SDS011;21236;48.740;-3.446;2023-02-28T07:06:51;27.15;;;11.75;;
35048;SDS011;21236;48.740;-3.446;2023-02-28T07:09:17;20.15;;;11.10;;
35048;SDS011;21236;48.740;-3.446;2023-02-28T07:11:44;23.17;;;11.68;;
35048;SDS011;21236;48.740;-3.446;2023-02-28T07:14:10;19.95;;;11.85;;
35048;SDS011;21236;48.740;-3.446;2023-02-28T07:16:36;22.27;;;10.95;;
35048;SDS011;21236;48.740;-3.446;2023-02-28T07:19:02;21.02;;;12.73;;
35048;SDS011;21236;48.740;-3.446;2023-02-28T07:21:28;24.13;;;11.20;;
35048;SDS011;21236;48.740;-3.446;2023-02-28T07:23:55;20.17;;;11.30;;
35048;SDS011;21236;48.740;-3.446;2023-02-28T07:26:21;20.30;;;11.85;;
35048;SDS011;21236;48.740;-3.446;2023-02-28T07:28:48;33.17;;;14.18;;
35048;SDS011;21236;48.740;-3.446;2023-02-28T07:31:14;21.27;;;11.95;;
35048;SDS011;21236;48.740;-3.446;2023-02-28T07:33:42;25.13;;;11.75;;
35048;SDS011;21236;48.740;-3.446;2023-02-28T07:36:12;23.27;;;10.82;;
35048;SDS011;21236;48.740;-3.446;2023-02-28T07:38:41;21.92;;;12.48;;
35048;SDS011;21236;48.740;-3.446;2023-02-28T07:41:07;29.05;;;12.60;;
35048;SDS011;21236;48.740;-3.446;2023-02-28T07:43:34;21.50;;;12.15;;
35048;SDS011;21236;48.740;-3.446;2023-02-28T07:46:07;27.10;;;12.45;;
35048;SDS011;21236;48.740;-3.446;2023-02-28T07:48:34;20.50;;;11.60;;
35048;SDS011;21236;48.740;-3.446;2023-02-28T07:51:00;19.35;;;11.18;;
35048;SDS011;21236;48.740;-3.446;2023-02-28T07:53:27;24.90;;;12.07;;
35048;SDS011;21236;48.740;-3.446;2023-02-28T07:55:57;20.83;;;10.88;;
35048;SDS011;21236;48.740;-3.446;2023-02-28T07:58:23;28.20;;;11.40;;
35048;SDS011;21236;48.740;-3.446;2023-02-28T08:00:50;19.75;;;11.13;;
35048;SDS011;21236;48.740;-3.446;2023-02-28T08:03:20;20.50;;;11.07;;
35048;SDS011;21236;48.740;-3.446;2023-02-28T08:05:46;18.23;;;10.00;;
35048;SDS011;21236;48.740;-3.446;2023-02-28T08:08:13;17.65;;;9.60;;
35048;SDS011;21236;48.740;-3.446;2023-02-28T08:10:39;18.75;;;10.23;;
35048;SDS011;21236;48.740;-3.446;2023-02-28T08:13:05;18.20;;;9.60;;
35048;SDS011;21236;48.740;-3.446;2023-02-28T08:15:31;14.55;;;9.15;;
35048;SDS011;21236;48.740;-3.446;2023-02-28T08:17:57;16.45;;;8.88;;
35048;SDS011;21236;48.740;-3.446;2023-02-28T08:20:24;14.90;;;8.45;;
35048;SDS011;21236;48.740;-3.446;2023-02-28T08:22:50;17.23;;;8.23;;
35048;SDS011;21236;48.740;-3.446;2023-02-28T08:25:17;16.08;;;9.18;;
35048;SDS011;21236;48.740;-3.446;2023-02-28T08:27:43;12.40;;;7.55;;
35048;SDS011;21236;48.740;-3.446;2023-02-28T08:30:10;20.65;;;8.95;;
35048;SDS011;21236;48.740;-3.446;2023-02-28T08:32:36;18.55;;;8.23;;
35048;SDS011;21236;48.740;-3.446;2023-02-28T08:35:02;13.52;;;7.32;;
35048;SDS011;21236;48.740;-3.446;2023-02-28T08:37:29;11.40;;;7.22;;
35048;SDS011;21236;48.740;-3.446;2023-02-28T08:39:55;12.57;;;7.60;;
35048;SDS011;21236;48.740;-3.446;2023-02-28T08:42:21;15.75;;;6.43;;
35048;SDS011;21236;48.740;-3.446;2023-02-28T08:44:47;15.68;;;6.97;;
35048;SDS011;21236;48.740;-3.446;2023-02-28T08:47:13;15.13;;;6.28;;
35048;SDS011;21236;48.740;-3.446;2023-02-28T08:49:39;13.25;;;6.53;;
35048;SDS011;21236;48.740;-3.446;2023-02-28T08:52:05;14.32;;;6.78;;
35048;SDS011;21236;48.740;-3.446;2023-02-28T08:54:31;12.35;;;6.05;;
35048;SDS011;21236;48.740;-3.446;2023-02-28T08:56:59;10.82;;;6.80;;
35048;SDS011;21236;48.740;-3.446;2023-02-28T08:59:25;8.93;;;5.90;;
35048;SDS011;21236;48.740;-3.446;2023-02-28T09:01:51;11.57;;;6.47;;
35048;SDS011;21236;48.740;-3.446;2023-02-28T09:04:17;11.95;;;5.43;;
35048;SDS011;21236;48.740;-3.446;2023-02-28T09:06:43;12.40;;;6.78;;
35048;SDS011;21236;48.740;-3.446;2023-02-28T09:09:10;12.90;;;6.85;;
35048;SDS011;21236;48.740;-3.446;2023-02-28T09:11:36;11.23;;;6.53;;
35048;SDS011;21236;48.740;-3.446;2023-02-28T09:14:02;9.65;;;6.40;;
35048;SDS011;21236;48.740;-3.446;2023-02-28T09:16:29;13.73;;;7.40;;
35048;SDS011;21236;48.740;-3.446;2023-02-28T09:18:56;8.98;;;6.60;;
35048;SDS011;21236;48.740;-3.446;2023-02-28T09:21:22;13.80;;;7.53;;
35048;SDS011;21236;48.740;-3.446;2023-02-28T09:23:49;16.08;;;7.55;;
35048;SDS011;21236;48.740;-3.446;2023-02-28T09:26:20;14.00;;;7.45;;
35048;SDS011;21236;48.740;-3.446;2023-02-28T09:28:47;15.93;;;7.65;;
35048;SDS011;21236;48.740;-3.446;2023-02-28T09:31:14;18.42;;;8.13;;
35048;SDS011;21236;48.740;-3.446;2023-02-28T09:33:41;11.88;;;7.55;;
35048;SDS011;21236;48.740;-3.446;2023-02-28T09:36:07;15.05;;;7.55;;
35048;SDS011;21236;48.740;-3.446;2023-02-28T09:38:34;13.77;;;9.02;;
35048;SDS011;21236;48.740;-3.446;2023-02-28T09:41:02;14.25;;;9.57;;
35048;SDS011;21236;48.740;-3.446;2023-02-28T09:43:31;20.95;;;10.50;;
35048;SDS011;21236;48.740;-3.446;2023-02-28T09:46:00;21.55;;;10.80;;
35048;SDS011;21236;48.740;-3.446;2023-02-28T09:48:31;21.88;;;10.63;;
35048;SDS011;21236;48.740;-3.446;2023-02-28T09:51:04;19.10;;;11.15;;
35048;SDS011;21236;48.740;-3.446;2023-02-28T09:53:31;17.90;;;10.85;;
35048;SDS011;21236;48.740;-3.446;2023-02-28T09:56:01;18.92;;;10.57;;
35048;SDS011;21236;48.740;-3.446;2023-02-28T10:01:06;19.70;;;9.35;;
35048;SDS011;21236;48.740;-3.446;2023-02-28T10:03:36;17.38;;;8.85;;
35048;SDS011;21236;48.740;-3.446;2023-02-28T10:06:11;20.13;;;8.90;;
35048;SDS011;21236;48.740;-3.446;2023-02-28T10:08:40;15.13;;;9.02;;
35048;SDS011;21236;48.740;-3.446;2023-02-28T10:11:11;24.83;;;9.83;;
35048;SDS011;21236;48.740;-3.446;2023-02-28T10:16:14;31.13;;;12.25;;
35048;SDS011;21236;48.740;-3.446;2023-02-28T10:18:59;22.23;;;11.10;;
35048;SDS011;21236;48.740;-3.446;2023-02-28T10:21:30;19.30;;;10.43;;
35048;SDS011;21236;48.740;-3.446;2023-02-28T10:24:03;25.02;;;12.02;;
35048;SDS011;21236;48.740;-3.446;2023-02-28T10:26:30;21.23;;;12.13;;
35048;SDS011;21236;48.740;-3.446;2023-02-28T10:28:57;14.32;;;10.27;;
35048;SDS011;21236;48.740;-3.446;2023-02-28T10:31:23;31.48;;;12.32;;
35048;SDS011;21236;48.740;-3.446;2023-02-28T10:33:49;22.38;;;11.77;;
35048;SDS011;21236;48.740;-3.446;2023-02-28T10:36:16;25.70;;;10.90;;
35048;SDS011;21236;48.740;-3.446;2023-02-28T10:38:43;24.58;;;12.60;;
35048;SDS011;21236;48.740;-3.446;2023-02-28T10:41:31;29.65;;;12.73;;
35048;SDS011;21236;48.740;-3.446;2023-02-28T10:44:21;25.90;;;12.43;;
35048;SDS011;21236;48.740;-3.446;2023-02-28T10:46:46;23.50;;;12.30;;
35048;SDS011;21236;48.740;-3.446;2023-02-28T10:49:13;25.27;;;11.95;;
35048;SDS011;21236;48.740;-3.446;2023-02-28T10:51:41;23.00;;;12.60;;
35048;SDS011;21236;48.740;-3.446;2023-02-28T10:54:20;24.55;;;12.85;;
35048;SDS011;21236;48.740;-3.446;2023-02-28T10:59:34;21.60;;;12.38;;
35048;SDS011;21236;48.740;-3.446;2023-02-28T11:02:00;22.00;;;12.35;;
35048;SDS011;21236;48.740;-3.446;2023-02-28T11:09:33;21.02;;;11.63;;
35048;SDS011;21236;48.740;-3.446;2023-02-28T11:12:00;21.23;;;10.85;;
35048;SDS011;21236;48.740;-3.446;2023-02-28T11:14:29;20.70;;;10.65;;
35048;SDS011;21236;48.740;-3.446;2023-02-28T11:16:59;16.45;;;6.88;;
35048;SDS011;21236;48.740;-3.446;2023-02-28T11:19:27;16.67;;;6.03;;
35048;SDS011;21236;48.740;-3.446;2023-02-28T11:21:59;12.85;;;6.03;;
35048;SDS011;21236;48.740;-3.446;2023-02-28T11:24:35;13.75;;;6.05;;
35048;SDS011;21236;48.740;-3.446;2023-02-28T11:27:02;16.92;;;5.82;;
35048;SDS011;21236;48.740;-3.446;2023-02-28T11:29:30;16.35;;;5.95;;
35048;SDS011;21236;48.740;-3.446;2023-02-28T11:34:41;18.73;;;6.78;;
35048;SDS011;21236;48.740;-3.446;2023-02-28T11:37:18;13.48;;;5.63;;
35048;SDS011;21236;48.740;-3.446;2023-02-28T11:39:45;14.77;;;6.35;;
35048;SDS011;21236;48.740;-3.446;2023-02-28T11:50:13;15.80;;;7.22;;
35048;SDS011;21236;48.740;-3.446;2023-02-28T12:00:26;8.63;;;4.30;;
35048;SDS011;21236;48.740;-3.446;2023-02-28T12:06:00;9.38;;;4.00;;
35048;SDS011;21236;48.740;-3.446;2023-02-28T12:11:11;5.05;;;3.35;;
35048;SDS011;21236;48.740;-3.446;2023-02-28T12:21:24;10.98;;;2.83;;
35048;SDS011;21236;48.740;-3.446;2023-02-28T12:28:56;11.88;;;4.07;;
35048;SDS011;21236;48.740;-3.446;2023-02-28T12:31:24;12.30;;;3.55;;
35048;SDS011;21236;48.740;-3.446;2023-02-28T12:33:57;13.90;;;3.30;;
35048;SDS011;21236;48.740;-3.446;2023-02-28T12:36:25;12.73;;;3.78;;
35048;SDS011;21236;48.740;-3.446;2023-02-28T12:39:28;11.00;;;2.92;;
35048;SDS011;21236;48.740;-3.446;2023-02-28T12:41:51;11.47;;;2.60;;
35048;SDS011;21236;48.740;-3.446;2023-02-28T12:44:26;9.75;;;3.00;;
35048;SDS011;21236;48.740;-3.446;2023-02-28T12:46:58;9.05;;;3.17;;
35048;SDS011;21236;48.740;-3.446;2023-02-28T12:51:52;11.25;;;2.60;;
35048;SDS011;21236;48.740;-3.446;2023-02-28T12:59:27;9.88;;;2.42;;
35048;SDS011;21236;48.740;-3.446;2023-02-28T13:04:52;9.10;;;2.25;;
35048;SDS011;21236;48.740;-3.446;2023-02-28T13:08:04;6.60;;;2.08;;
35048;SDS011;21236;48.740;-3.446;2023-02-28T13:10:04;3.28;;;1.17;;
35048;SDS011;21236;48.740;-3.446;2023-02-28T13:12:32;6.93;;;1.38;;
35048;SDS011;21236;48.740;-3.446;2023-02-28T13:15:04;7.00;;;1.50;;
35048;SDS011;21236;48.740;-3.446;2023-02-28T13:17:31;8.23;;;1.30;;
35048;SDS011;21236;48.740;-3.446;2023-02-28T13:19:59;3.83;;;1.30;;
35048;SDS011;21236;48.740;-3.446;2023-02-28T13:24:52;11.45;;;1.63;;
35048;SDS011;21236;48.740;-3.446;2023-02-28T13:27:32;7.57;;;1.77;;
35048;SDS011;21236;48.740;-3.446;2023-02-28T13:29:58;8.30;;;1.92;;
35048;SDS011;21236;48.740;-3.446;2023-02-28T13:42:23;11.75;;;4.32;;
35048;SDS011;21236;48.740;-3.446;2023-02-28T13:47:39;19.00;;;3.20;;
35048;SDS011;21236;48.740;-3.446;2023-02-28T13:53:03;16.25;;;3.38;;
35048;SDS011;21236;48.740;-3.446;2023-02-28T13:58:41;11.02;;;3.45;;
35048;SDS011;21236;48.740;-3.446;2023-02-28T14:09:40;12.18;;;3.20;;
35048;SDS011;21236;48.740;-3.446;2023-02-28T14:11:41;10.55;;;3.40;;
35048;SDS011;21236;48.740;-3.446;2023-02-28T14:14:08;8.50;;;3.13;;
35048;SDS011;21236;48.740;-3.446;2023-02-28T14:16:44;9.40;;;2.80;;
35048;SDS011;21236;48.740;-3.446;2023-02-28T14:19:16;12.85;;;3.08;;
35048;SDS011;21236;48.740;-3.446;2023-02-28T14:21:51;16.63;;;2.92;;
35048;SDS011;21236;48.740;-3.446;2023-02-28T14:27:05;12.07;;;2.70;;
35048;SDS011;21236;48.740;-3.446;2023-02-28T14:37:26;20.40;;;3.17;;
35048;SDS011;21236;48.740;-3.446;2023-02-28T14:39:52;11.75;;;3.08;;
35048;SDS011;21236;48.740;-3.446;2023-02-28T14:42:34;8.73;;;1.92;;
35048;SDS011;21236;48.740;-3.446;2023-02-28T14:45:00;7.90;;;1.85;;
35048;SDS011;21236;48.740;-3.446;2023-02-28T14:47:28;13.85;;;2.08;;
35048;SDS011;21236;48.740;-3.446;2023-02-28T14:49:54;13.30;;;1.55;;
35048;SDS011;21236;48.740;-3.446;2023-02-28T14:52:24;12.32;;;2.50;;
35048;SDS011;21236;48.740;-3.446;2023-02-28T15:00:47;6.10;;;2.00;;
35048;SDS011;21236;48.740;-3.446;2023-02-28T15:03:39;10.88;;;2.90;;
35048;SDS011;21236;48.740;-3.446;2023-02-28T15:06:16;10.27;;;2.03;;
35048;SDS011;21236;48.740;-3.446;2023-02-28T15:08:45;8.40;;;1.65;;
35048;SDS011;21236;48.740;-3.446;2023-02-28T15:11:15;8.00;;;1.83;;
35048;SDS011;21236;48.740;-3.446;2023-02-28T15:13:51;9.10;;;1.85;;
35048;SDS011;21236;48.740;-3.446;2023-02-28T15:16:20;7.70;;;1.80;;
35048;SDS011;21236;48.740;-3.446;2023-02-28T15:18:48;6.57;;;1.70;;
35048;SDS011;21236;48.740;-3.446;2023-02-28T15:21:16;9.18;;;1.80;;
35048;SDS011;21236;48.740;-3.446;2023-02-28T15:23:44;4.63;;;1.40;;
35048;SDS011;21236;48.740;-3.446;2023-02-28T15:26:19;5.88;;;1.83;;
35048;SDS011;21236;48.740;-3.446;2023-02-28T15:28:47;9.98;;;3.53;;
35048;SDS011;21236;48.740;-3.446;2023-02-28T15:31:39;7.13;;;2.03;;
35048;SDS011;21236;48.740;-3.446;2023-02-28T15:34:04;14.55;;;2.72;;
35048;SDS011;21236;48.740;-3.446;2023-02-28T15:36:32;10.85;;;1.70;;
35048;SDS011;21236;48.740;-3.446;2023-02-28T15:39:02;11.23;;;1.73;;
35048;SDS011;21236;48.740;-3.446;2023-02-28T15:41:30;12.38;;;2.13;;
35048;SDS011;21236;48.740;-3.446;2023-02-28T15:46:54;9.93;;;2.90;;
35048;SDS011;21236;48.740;-3.446;2023-02-28T15:49:21;6.07;;;1.50;;
35048;SDS011;21236;48.740;-3.446;2023-02-28T15:51:49;4.30;;;1.83;;
35048;SDS011;21236;48.740;-3.446;2023-02-28T15:54:19;7.72;;;1.60;;
35048;SDS011;21236;48.740;-3.446;2023-02-28T15:56:46;5.72;;;1.58;;
35048;SDS011;21236;48.740;-3.446;2023-02-28T15:59:18;5.85;;;1.50;;
35048;SDS011;21236;48.740;-3.446;2023-02-28T16:01:45;9.63;;;1.43;;
35048;SDS011;21236;48.740;-3.446;2023-02-28T16:04:15;10.13;;;2.00;;
35048;SDS011;21236;48.740;-3.446;2023-02-28T16:06:42;5.82;;;1.73;;
35048;SDS011;21236;48.740;-3.446;2023-02-28T16:09:13;7.45;;;2.22;;
35048;SDS011;21236;48.740;-3.446;2023-02-28T16:11:46;9.13;;;1.80;;
35048;SDS011;21236;48.740;-3.446;2023-02-28T16:14:14;6.13;;;1.67;;
35048;SDS011;21236;48.740;-3.446;2023-02-28T16:16:45;6.57;;;2.35;;
35048;SDS011;21236;48.740;-3.446;2023-02-28T16:19:11;9.35;;;1.92;;
35048;SDS011;21236;48.740;-3.446;2023-02-28T16:21:37;7.28;;;1.92;;
35048;SDS011;21236;48.740;-3.446;2023-02-28T16:24:03;5.43;;;1.98;;
35048;SDS011;21236;48.740;-3.446;2023-02-28T16:26:29;9.45;;;1.70;;
35048;SDS011;21236;48.740;-3.446;2023-02-28T16:28:59;6.85;;;2.25;;
35048;SDS011;21236;48.740;-3.446;2023-02-28T16:31:25;14.93;;;4.05;;
35048;SDS011;21236;48.740;-3.446;2023-02-28T16:33:52;9.52;;;3.47;;
35048;SDS011;21236;48.740;-3.446;2023-02-28T16:36:22;10.15;;;3.50;;
35048;SDS011;21236;48.740;-3.446;2023-02-28T16:38:50;8.03;;;2.47;;
35048;SDS011;21236;48.740;-3.446;2023-02-28T16:41:18;8.93;;;2.97;;
35048;SDS011;21236;48.740;-3.446;2023-02-28T16:43:45;10.85;;;3.22;;
35048;SDS011;21236;48.740;-3.446;2023-02-28T16:46:12;8.43;;;2.50;;
35048;SDS011;21236;48.740;-3.446;2023-02-28T16:48:39;9.43;;;2.65;;
35048;SDS011;21236;48.740;-3.446;2023-02-28T16:51:12;7.30;;;2.80;;
35048;SDS011;21236;48.740;-3.446;2023-02-28T16:53:38;8.18;;;2.70;;
35048;SDS011;21236;48.740;-3.446;2023-02-28T16:56:05;10.98;;;2.03;;
35048;SDS011;21236;48.740;-3.446;2023-02-28T16:58:32;7.85;;;2.53;;